Time;durP1;ratioP1;P1;durP2;ratioP2;P2;SDS_P1;SDS_P2;PMS_P1;PMS_P2;Temp;Humidity;BMP_temperature;BMP_pressure;BME280_temperature;BME280_humidity;BME280_pressure;Samples;Min_cycle;Max_cycle;Signal;HPM_P1;HPM_P2
2023/09/18 00:00:44;;;;;;;6.95;5.47;;;22.50;99.90;;;;;;5046257;28;20199;-81
2023/09/18 00:03:13;;;;;;;9.40;5.85;;;22.50;99.90;;;;;;5047733;28;20198;-80
2023/09/18 00:05:40;;;;;;;6.57;5.78;;;22.60;99.90;;;;;;5046645;28;20230;-80
2023/09/18 00:08:08;;;;;;;7.00;5.78;;;22.50;99.90;;;;;;5053221;28;20205;-80
2023/09/18 00:10:35;;;;;;;5.55;4.80;;;22.50;99.90;;;;;;5046670;28;20214;-80
2023/09/18 00:13:03;;;;;;;6.55;5.15;;;22.50;99.90;;;;;;5045187;28;20219;-81
2023/09/18 00:15:31;;;;;;;9.63;5.80;;;22.50;99.90;;;;;;5050522;28;20226;-80
2023/09/18 00:17:59;;;;;;;8.23;5.53;;;22.50;99.90;;;;;;5051472;28;20202;-80
2023/09/18 00:20:28;;;;;;;7.10;5.78;;;22.50;99.90;;;;;;5053488;28;20206;-81
2023/09/18 00:22:55;;;;;;;7.30;5.32;;;22.50;99.90;;;;;;5066986;28;20195;-80
2023/09/18 00:25:23;;;;;;;5.88;5.28;;;22.50;99.90;;;;;;5048434;28;20218;-81
2023/09/18 00:27:51;;;;;;;7.57;5.55;;;22.40;99.90;;;;;;5044645;28;20198;-80
2023/09/18 00:30:19;;;;;;;6.65;5.68;;;22.40;99.90;;;;;;5047880;28;20668;-80
2023/09/18 00:32:49;;;;;;;6.15;5.10;;;22.40;99.90;;;;;;5053418;28;20198;-80
2023/09/18 00:35:17;;;;;;;6.18;5.38;;;22.40;99.90;;;;;;5047421;28;20223;-80
2023/09/18 00:37:47;;;;;;;6.97;5.85;;;22.40;99.90;;;;;;5052283;28;20205;-80
2023/09/18 00:40:14;;;;;;;8.20;5.65;;;22.40;99.90;;;;;;5052047;28;20209;-80
2023/09/18 00:42:42;;;;;;;7.85;5.85;;;22.40;99.90;;;;;;5053065;28;20202;-82
2023/09/18 00:45:10;;;;;;;8.05;6.10;;;22.40;99.90;;;;;;5051506;28;20218;-80
2023/09/18 00:47:38;;;;;;;8.10;5.85;;;22.30;99.90;;;;;;5055842;28;20194;-80
2023/09/18 00:50:10;;;;;;;8.18;5.78;;;22.40;99.90;;;;;;5053881;28;20209;-80
2023/09/18 00:52:38;;;;;;;11.07;5.47;;;22.30;99.90;;;;;;5068856;28;20673;-81
2023/09/18 00:55:10;;;;;;;7.00;5.65;;;22.30;99.90;;;;;;5048870;28;20222;-80
2023/09/18 00:57:37;;;;;;;9.65;5.60;;;22.30;99.90;;;;;;5064047;28;20202;-81
2023/09/18 01:00:06;;;;;;;9.38;5.28;;;22.30;99.90;;;;;;5053128;28;20209;-81
2023/09/18 01:02:34;;;;;;;7.43;5.70;;;22.30;99.90;;;;;;5050601;28;20217;-81
2023/09/18 01:05:02;;;;;;;6.95;5.82;;;22.30;99.90;;;;;;5053816;28;20230;-80
2023/09/18 01:07:29;;;;;;;6.30;5.57;;;22.30;99.90;;;;;;5055811;28;20199;-80
2023/09/18 01:09:57;;;;;;;6.47;5.88;;;22.30;99.90;;;;;;5055383;28;20198;-81
2023/09/18 01:12:35;;;;;;;8.82;5.70;;;22.30;99.90;;;;;;5049173;28;20652;-80
2023/09/18 01:15:08;;;;;;;7.30;5.65;;;22.30;99.90;;;;;;5065919;28;20242;-80
2023/09/18 01:17:38;;;;;;;8.32;5.40;;;22.30;99.90;;;;;;5043428;28;20207;-81
2023/09/18 01:20:06;;;;;;;5.80;5.10;;;22.30;99.90;;;;;;5047031;28;20206;-80
2023/09/18 01:22:35;;;;;;;8.48;5.63;;;22.30;99.90;;;;;;5051807;28;20207;-80
2023/09/18 01:25:03;;;;;;;8.27;5.20;;;22.30;99.90;;;;;;5050656;28;20218;-80
2023/09/18 01:27:31;;;;;;;6.72;5.20;;;22.30;99.90;;;;;;5049181;28;20198;-80
2023/09/18 01:29:58;;;;;;;8.25;5.43;;;22.20;99.90;;;;;;5051810;28;20206;-80
2023/09/18 01:32:30;;;;;;;6.55;5.40;;;22.20;99.90;;;;;;5049077;28;20206;-80
2023/09/18 01:35:00;;;;;;;9.82;5.85;;;22.20;99.90;;;;;;5050821;28;20222;-81
2023/09/18 01:37:29;;;;;;;7.00;5.40;;;22.20;99.90;;;;;;5049813;28;20207;-80
2023/09/18 01:39:59;;;;;;;7.07;5.25;;;22.20;99.90;;;;;;5051495;28;20203;-80
2023/09/18 01:42:28;;;;;;;6.30;5.28;;;22.20;99.90;;;;;;5049112;28;20658;-80
2023/09/18 01:44:56;;;;;;;6.82;5.32;;;22.20;99.90;;;;;;5048658;28;20829;-80
2023/09/18 01:47:24;;;;;;;8.48;5.28;;;22.10;99.90;;;;;;5077642;28;20198;-83
2023/09/18 01:49:51;;;;;;;8.48;5.13;;;22.10;99.90;;;;;;5051370;28;20202;-80
2023/09/18 01:52:19;;;;;;;9.10;5.20;;;22.10;99.90;;;;;;5050842;28;20203;-80
2023/09/18 01:54:46;;;;;;;8.82;5.20;;;22.10;99.90;;;;;;5053706;28;20620;-80
2023/09/18 01:57:15;;;;;;;7.65;4.80;;;22.10;99.90;;;;;;5058584;28;20202;-81
2023/09/18 01:59:44;;;;;;;7.88;4.90;;;22.10;99.90;;;;;;5053824;28;20229;-81
2023/09/18 02:02:12;;;;;;;7.60;5.38;;;22.10;99.90;;;;;;5060556;28;20198;-80
2023/09/18 02:04:39;;;;;;;8.70;5.70;;;22.10;99.90;;;;;;5056788;28;20230;-80
2023/09/18 02:07:07;;;;;;;10.65;4.75;;;22.10;99.90;;;;;;5054254;28;20215;-81
2023/09/18 02:09:36;;;;;;;8.48;5.68;;;22.10;99.90;;;;;;5058866;28;20221;-80
2023/09/18 02:12:05;;;;;;;6.65;5.47;;;22.10;99.90;;;;;;5056165;28;20209;-80
2023/09/18 02:14:34;;;;;;;10.45;4.75;;;22.00;99.90;;;;;;5067905;28;20225;-81
2023/09/18 02:17:02;;;;;;;11.57;5.38;;;22.10;99.90;;;;;;5058121;28;20569;-80
2023/09/18 02:19:30;;;;;;;6.63;4.75;;;22.10;99.90;;;;;;5051737;28;20202;-80
2023/09/18 02:21:58;;;;;;;8.27;5.10;;;22.10;99.90;;;;;;5049334;28;20209;-82
2023/09/18 02:24:25;;;;;;;8.00;4.63;;;22.10;99.90;;;;;;5068721;28;20233;-80
2023/09/18 02:26:55;;;;;;;7.90;5.30;;;22.10;99.90;;;;;;5069771;28;20225;-80
2023/09/18 02:29:22;;;;;;;6.97;4.82;;;22.10;99.90;;;;;;5062533;28;20205;-80
2023/09/18 02:31:51;;;;;;;6.72;5.00;;;22.10;99.90;;;;;;5052900;28;20206;-80
2023/09/18 02:34:19;;;;;;;8.27;5.82;;;22.10;99.90;;;;;;5051790;28;20225;-80
2023/09/18 02:36:47;;;;;;;8.88;5.70;;;22.10;99.90;;;;;;5060857;28;20201;-80
2023/09/18 02:39:14;;;;;;;5.63;4.93;;;22.10;99.90;;;;;;5060602;28;20198;-80
2023/09/18 02:41:45;;;;;;;9.52;5.50;;;22.10;99.90;;;;;;5063239;28;20198;-80
2023/09/18 02:44:12;;;;;;;5.28;4.72;;;22.00;99.90;;;;;;5060326;28;20210;-80
2023/09/18 02:46:42;;;;;;;6.22;4.90;;;22.00;99.90;;;;;;5054328;28;20202;-81
2023/09/18 02:49:10;;;;;;;10.52;5.38;;;22.00;99.90;;;;;;5062016;28;20203;-80
2023/09/18 02:51:38;;;;;;;7.47;5.07;;;21.90;99.90;;;;;;5060158;28;20202;-81
2023/09/18 02:54:06;;;;;;;6.18;5.57;;;21.80;99.90;;;;;;5060852;28;20600;-80
2023/09/18 02:56:34;;;;;;;5.13;4.63;;;21.90;99.90;;;;;;5059094;28;20205;-80
2023/09/18 02:59:01;;;;;;;8.77;5.43;;;21.80;99.90;;;;;;5056977;28;20194;-80
2023/09/18 03:01:29;;;;;;;8.85;5.57;;;21.80;99.90;;;;;;5057729;28;20210;-80
2023/09/18 03:03:56;;;;;;;7.88;5.20;;;21.80;99.90;;;;;;5057537;28;20203;-80
2023/09/18 03:06:25;;;;;;;9.52;5.68;;;21.80;99.90;;;;;;5061579;28;20209;-80
2023/09/18 03:08:53;;;;;;;7.03;5.32;;;21.70;99.90;;;;;;5062093;28;20199;-81
2023/09/18 03:11:20;;;;;;;7.00;5.28;;;21.70;99.90;;;;;;5061211;28;20198;-81
2023/09/18 03:13:48;;;;;;;7.03;4.82;;;21.80;99.90;;;;;;5058905;28;20199;-80
2023/09/18 03:16:18;;;;;;;7.90;4.97;;;21.90;99.90;;;;;;5060625;28;20225;-80
2023/09/18 03:18:47;;;;;;;5.68;4.63;;;21.90;99.90;;;;;;5054101;28;20202;-82
2023/09/18 03:21:14;;;;;;;5.15;4.10;;;22.10;99.90;;;;;;5057862;28;20212;-80
2023/09/18 03:23:43;;;;;;;6.18;4.05;;;22.20;99.90;;;;;;5051589;28;20281;-81
2023/09/18 03:26:12;;;;;;;4.93;4.25;;;22.30;99.90;;;;;;5048449;28;20190;-80
2023/09/18 03:28:40;;;;;;;7.78;4.30;;;22.40;99.90;;;;;;5053633;28;21324;-80
2023/09/18 03:31:08;;;;;;;5.22;4.25;;;22.40;99.90;;;;;;5054196;28;20190;-81
2023/09/18 03:33:36;;;;;;;9.93;4.43;;;22.40;99.90;;;;;;5055776;28;20209;-80
2023/09/18 03:36:04;;;;;;;9.68;4.28;;;22.50;99.90;;;;;;5055014;28;20226;-79
2023/09/18 03:38:38;;;;;;;6.88;4.50;;;22.50;99.90;;;;;;5048268;28;20203;-79
2023/09/18 03:41:07;;;;;;;6.45;3.65;;;22.60;99.90;;;;;;5046252;28;20199;-80
2023/09/18 03:43:34;;;;;;;6.47;4.00;;;22.60;99.90;;;;;;5049660;28;20206;-80
2023/09/18 03:46:06;;;;;;;5.75;3.95;;;22.70;99.90;;;;;;5061463;28;20222;-79
2023/09/18 03:48:37;;;;;;;4.68;3.65;;;22.60;99.90;;;;;;5053279;28;20209;-80
2023/09/18 03:51:05;;;;;;;6.32;4.30;;;22.70;99.90;;;;;;5046997;28;20198;-79
2023/09/18 03:53:33;;;;;;;5.80;4.35;;;22.70;99.90;;;;;;5047692;28;20202;-80
2023/09/18 03:56:01;;;;;;;5.85;3.95;;;22.70;99.90;;;;;;5050211;28;20210;-81
2023/09/18 03:58:30;;;;;;;5.95;4.25;;;22.70;99.90;;;;;;5051148;28;20709;-81
2023/09/18 04:00:57;;;;;;;6.07;3.65;;;22.70;99.90;;;;;;5051013;28;20202;-80
2023/09/18 04:03:25;;;;;;;6.60;3.70;;;22.70;99.90;;;;;;5049196;28;20205;-80
2023/09/18 04:05:52;;;;;;;6.82;3.90;;;22.70;99.90;;;;;;5051655;28;20232;-79
2023/09/18 04:08:20;;;;;;;5.93;3.80;;;22.70;99.90;;;;;;5048902;28;20213;-79
2023/09/18 04:10:47;;;;;;;6.95;4.10;;;22.60;99.90;;;;;;5053371;28;20205;-80
2023/09/18 04:13:15;;;;;;;6.80;4.10;;;22.70;99.90;;;;;;5049834;28;20207;-79
2023/09/18 04:15:45;;;;;;;7.72;3.75;;;22.60;99.90;;;;;;5048549;28;20225;-81
2023/09/18 04:18:13;;;;;;;8.23;4.10;;;22.60;99.90;;;;;;5052625;28;20203;-80
2023/09/18 04:20:41;;;;;;;7.22;3.88;;;22.50;99.90;;;;;;5052434;28;20203;-80
2023/09/18 04:23:19;;;;;;;5.57;3.72;;;22.50;99.90;;;;;;5059672;28;20221;-81
2023/09/18 04:25:47;;;;;;;7.15;4.20;;;22.50;99.90;;;;;;5049845;28;20209;-80
2023/09/18 04:28:14;;;;;;;8.50;4.38;;;22.50;99.90;;;;;;5054680;28;20202;-81
2023/09/18 04:30:43;;;;;;;6.72;4.13;;;22.40;99.90;;;;;;5050732;28;20209;-80
2023/09/18 04:33:11;;;;;;;6.65;4.07;;;22.40;99.90;;;;;;5070405;28;20679;-80
2023/09/18 04:35:39;;;;;;;7.57;4.28;;;22.30;99.90;;;;;;5054281;28;20714;-80
2023/09/18 04:38:10;;;;;;;6.85;3.88;;;22.40;99.90;;;;;;5049182;28;20202;-79
2023/09/18 04:40:39;;;;;;;7.68;4.40;;;22.30;99.90;;;;;;5057599;28;20205;-80
2023/09/18 04:43:08;;;;;;;7.32;4.22;;;22.40;99.90;;;;;;5051955;28;20202;-79
2023/09/18 04:45:35;;;;;;;5.40;3.55;;;22.30;99.90;;;;;;5058391;28;20222;-80
2023/09/18 04:48:05;;;;;;;6.40;4.40;;;22.30;99.90;;;;;;5060791;28;20205;-80
2023/09/18 04:50:34;;;;;;;9.60;4.28;;;22.30;99.90;;;;;;5056487;28;20205;-80
2023/09/18 04:53:01;;;;;;;8.23;4.57;;;22.30;99.90;;;;;;5055416;28;20210;-80
2023/09/18 04:55:29;;;;;;;5.70;3.78;;;22.30;99.90;;;;;;5054743;28;20232;-80
2023/09/18 04:57:59;;;;;;;8.45;3.92;;;22.30;99.90;;;;;;5056446;28;20200;-80
2023/09/18 05:00:29;;;;;;;8.52;4.53;;;22.20;99.90;;;;;;5051305;28;20202;-80
2023/09/18 05:02:57;;;;;;;9.60;4.30;;;22.20;99.90;;;;;;5053927;28;20206;-80
2023/09/18 05:05:26;;;;;;;7.15;4.35;;;22.20;99.90;;;;;;5056141;28;20223;-79
2023/09/18 05:07:53;;;;;;;9.15;4.65;;;22.20;99.90;;;;;;5057731;28;20205;-80
2023/09/18 05:10:21;;;;;;;5.43;4.50;;;22.10;99.90;;;;;;5060023;28;20202;-79
2023/09/18 05:12:50;;;;;;;7.57;4.10;;;22.10;99.90;;;;;;5051571;28;20205;-81
2023/09/18 05:15:18;;;;;;;6.80;4.40;;;22.10;99.90;;;;;;5062135;28;20227;-82
2023/09/18 05:17:47;;;;;;;7.82;4.80;;;22.10;99.90;;;;;;5061061;28;20202;-80
2023/09/18 05:20:17;;;;;;;9.32;4.43;;;22.00;99.90;;;;;;5051465;28;20210;-82
2023/09/18 05:22:46;;;;;;;8.10;4.90;;;22.00;99.90;;;;;;5051225;28;20203;-81
2023/09/18 05:25:15;;;;;;;6.07;4.65;;;22.00;99.90;;;;;;5059403;28;20594;-80
2023/09/18 05:27:44;;;;;;;10.93;4.97;;;22.00;99.90;;;;;;5050577;28;20206;-80
2023/09/18 05:30:14;;;;;;;7.88;4.22;;;22.00;99.90;;;;;;5043398;28;20207;-79
2023/09/18 05:32:44;;;;;;;9.65;4.78;;;22.00;99.90;;;;;;5049792;28;20217;-80
2023/09/18 05:35:12;;;;;;;10.50;4.65;;;21.90;99.90;;;;;;5050515;28;20222;-80
2023/09/18 05:37:40;;;;;;;6.68;4.22;;;22.00;99.90;;;;;;5053318;28;20209;-82
2023/09/18 05:40:10;;;;;;;10.85;4.70;;;21.90;99.90;;;;;;5057232;28;20241;-80
2023/09/18 05:42:38;;;;;;;9.25;4.93;;;21.90;99.90;;;;;;5052344;28;20203;-79
2023/09/18 05:45:07;;;;;;;9.48;4.80;;;21.90;99.90;;;;;;5054916;28;20225;-80
2023/09/18 05:47:35;;;;;;;8.23;4.82;;;21.80;99.90;;;;;;5058591;28;20212;-80
2023/09/18 05:50:05;;;;;;;7.20;4.60;;;21.80;99.90;;;;;;5056116;28;20711;-80
2023/09/18 05:52:36;;;;;;;9.43;4.30;;;21.80;99.90;;;;;;5049679;28;20655;-79
2023/09/18 05:55:04;;;;;;;13.25;4.53;;;21.70;99.90;;;;;;5054352;28;20229;-80
2023/09/18 05:57:38;;;;;;;7.60;4.35;;;21.70;99.90;;;;;;5052322;28;20229;-79
2023/09/18 06:00:07;;;;;;;11.23;4.57;;;21.60;99.90;;;;;;5057192;28;20284;-81
2023/09/18 06:02:40;;;;;;;6.15;3.83;;;21.60;99.90;;;;;;5054576;28;20198;-80
2023/09/18 06:05:11;;;;;;;9.73;4.63;;;21.60;99.90;;;;;;5070358;28;20616;-79
2023/09/18 06:07:38;;;;;;;9.43;3.97;;;21.50;99.90;;;;;;5056288;28;20209;-79
2023/09/18 06:10:07;;;;;;;11.65;4.43;;;21.60;99.90;;;;;;5053868;28;20208;-80
2023/09/18 06:12:34;;;;;;;9.98;4.80;;;21.60;99.90;;;;;;5060293;28;20213;-80
2023/09/18 06:15:05;;;;;;;6.70;4.50;;;21.60;99.90;;;;;;5049453;28;20229;-79
2023/09/18 06:17:33;;;;;;;6.47;3.53;;;21.80;99.90;;;;;;5044309;28;20218;-79
2023/09/18 06:20:01;;;;;;;13.45;5.32;;;21.80;99.90;;;;;;5046458;28;20199;-79
2023/09/18 06:22:28;;;;;;;13.18;5.95;;;21.80;99.90;;;;;;5054096;28;20202;-79
2023/09/18 06:24:58;;;;;;;11.93;4.97;;;21.80;99.90;;;;;;5041172;28;20229;-79
2023/09/18 06:27:25;;;;;;;10.75;5.00;;;21.90;99.90;;;;;;5056919;28;20559;-79
2023/09/18 06:29:53;;;;;;;10.27;4.35;;;22.00;99.90;;;;;;5043959;28;20203;-78
2023/09/18 06:32:22;;;;;;;7.13;3.15;;;22.00;99.90;;;;;;5050666;28;20584;-78
2023/09/18 06:34:49;;;;;;;9.02;3.22;;;22.00;99.90;;;;;;5049113;28;20229;-76
2023/09/18 06:37:18;;;;;;;8.20;3.85;;;21.70;99.90;;;;;;5042721;28;20215;-77
2023/09/18 06:39:45;;;;;;;9.75;3.60;;;21.70;99.90;;;;;;5040474;28;20190;-78
2023/09/18 06:42:13;;;;;;;7.95;3.45;;;21.80;99.90;;;;;;5048392;28;20203;-78
2023/09/18 06:44:40;;;;;;;6.55;3.03;;;21.80;99.90;;;;;;5043687;28;20230;-79
2023/09/18 06:47:14;;;;;;;7.43;3.35;;;21.90;99.90;;;;;;5056258;28;20198;-78
2023/09/18 06:49:43;;;;;;;35.28;14.93;;;22.00;99.90;;;;;;5040092;28;20207;-78
2023/09/18 06:52:10;;;;;;;28.85;9.70;;;22.00;99.90;;;;;;5046853;28;20209;-78
2023/09/18 06:54:38;;;;;;;10.60;5.45;;;22.00;99.90;;;;;;5045317;28;20222;-79
2023/09/18 06:57:05;;;;;;;7.47;3.80;;;22.00;99.90;;;;;;5044876;28;20222;-79
2023/09/18 06:59:41;;;;;;;7.80;3.20;;;21.90;99.90;;;;;;5046676;28;20207;-79
2023/09/18 07:02:08;;;;;;;6.47;3.13;;;21.90;99.90;;;;;;5051548;28;20656;-79
2023/09/18 07:04:36;;;;;;;10.70;3.17;;;22.00;99.90;;;;;;5047723;28;20222;-79
2023/09/18 07:07:05;;;;;;;5.18;3.03;;;21.90;99.90;;;;;;5049228;28;20225;-79
2023/09/18 07:09:33;;;;;;;6.70;3.50;;;22.00;99.90;;;;;;5041876;28;20207;-79
2023/09/18 07:12:01;;;;;;;9.48;3.75;;;21.90;99.90;;;;;;5039167;28;20420;-80
2023/09/18 07:14:28;;;;;;;7.65;3.88;;;21.90;99.90;;;;;;5062657;28;20230;-79
2023/09/18 07:16:56;;;;;;;12.40;4.95;;;21.90;99.90;;;;;;5046047;28;20226;-79
2023/09/18 07:19:23;;;;;;;9.98;4.45;;;21.90;99.90;;;;;;5043754;28;20218;-80
2023/09/18 07:21:51;;;;;;;8.93;3.92;;;21.90;99.90;;;;;;5048738;28;20206;-80
2023/09/18 07:24:20;;;;;;;5.93;3.35;;;21.90;99.90;;;;;;5055440;28;20252;-79
2023/09/18 07:26:49;;;;;;;6.40;3.08;;;22.00;99.90;;;;;;5045365;28;20209;-79
2023/09/18 07:29:17;;;;;;;4.55;2.42;;;21.90;99.90;;;;;;5049571;28;20573;-79
2023/09/18 07:31:44;;;;;;;7.30;3.20;;;21.90;99.90;;;;;;5049999;28;20209;-80
2023/09/18 07:34:12;;;;;;;5.43;2.78;;;21.90;99.90;;;;;;5053562;28;20313;-80
2023/09/18 07:36:39;;;;;;;6.93;2.92;;;21.90;99.90;;;;;;5075674;28;20214;-79
2023/09/18 07:39:06;;;;;;;8.98;3.30;;;22.00;99.90;;;;;;5048209;28;20202;-79
2023/09/18 07:41:35;;;;;;;12.80;4.55;;;22.10;99.90;;;;;;5051319;28;20687;-80
2023/09/18 07:44:03;;;;;;;6.90;2.80;;;22.10;99.90;;;;;;5053089;28;20202;-80
2023/09/18 07:46:30;;;;;;;6.53;2.60;;;22.00;99.90;;;;;;5054179;28;20206;-79
2023/09/18 07:48:58;;;;;;;4.35;2.00;;;21.90;99.90;;;;;;5057968;28;20198;-79
2023/09/18 07:51:25;;;;;;;3.97;2.13;;;21.80;99.90;;;;;;5058545;28;20202;-79
2023/09/18 07:53:53;;;;;;;7.55;2.20;;;21.90;99.90;;;;;;5050368;28;20206;-80
2023/09/18 07:56:21;;;;;;;2.47;2.22;;;21.90;99.90;;;;;;5048363;28;20202;-79
2023/09/18 07:58:50;;;;;;;5.22;2.38;;;21.80;99.90;;;;;;5044883;28;20222;-79
2023/09/18 08:01:18;;;;;;;3.30;2.20;;;21.80;99.90;;;;;;5045383;28;20198;-79
2023/09/18 08:03:45;;;;;;;4.43;2.42;;;21.80;99.90;;;;;;5049620;28;20201;-80
2023/09/18 08:06:15;;;;;;;3.78;2.50;;;21.80;99.90;;;;;;5057133;28;20209;-80
2023/09/18 08:08:43;;;;;;;5.18;2.65;;;21.80;99.90;;;;;;5074048;28;20209;-79
2023/09/18 08:11:10;;;;;;;3.25;1.98;;;21.90;99.90;;;;;;5049356;28;20217;-79
2023/09/18 08:13:38;;;;;;;3.40;2.05;;;21.90;99.90;;;;;;5050443;28;20202;-78
2023/09/18 08:16:08;;;;;;;3.65;2.33;;;21.80;99.90;;;;;;5048490;28;20233;-79
2023/09/18 08:18:36;;;;;;;3.45;2.33;;;21.80;99.90;;;;;;5047744;28;20225;-78
2023/09/18 08:21:04;;;;;;;3.63;1.90;;;21.90;99.90;;;;;;5043822;28;20206;-78
2023/09/18 08:23:38;;;;;;;4.22;2.17;;;21.90;99.90;;;;;;5042745;28;20205;-78
2023/09/18 08:26:05;;;;;;;4.25;2.38;;;22.00;99.90;;;;;;5066091;28;20233;-78
2023/09/18 08:28:35;;;;;;;5.07;2.05;;;22.00;99.90;;;;;;5047876;28;20198;-78
2023/09/18 08:31:03;;;;;;;2.78;1.92;;;21.90;99.90;;;;;;5033255;28;20209;-78
2023/09/18 08:33:31;;;;;;;6.18;2.20;;;21.90;99.90;;;;;;5050302;28;20682;-78
2023/09/18 08:35:59;;;;;;;3.67;2.22;;;21.80;99.90;;;;;;5047742;28;20696;-78
2023/09/18 08:38:27;;;;;;;2.95;1.90;;;21.80;99.90;;;;;;5048832;28;20218;-78
2023/09/18 08:40:56;;;;;;;3.60;2.20;;;21.70;99.90;;;;;;5048296;28;20202;-78
2023/09/18 08:43:25;;;;;;;5.60;2.20;;;21.70;99.90;;;;;;5039017;28;20206;-78
2023/09/18 08:45:54;;;;;;;4.25;2.08;;;21.70;99.90;;;;;;5047150;28;20214;-78
2023/09/18 08:48:22;;;;;;;5.40;2.03;;;21.80;99.90;;;;;;5045963;28;20203;-78
2023/09/18 08:50:52;;;;;;;5.22;1.90;;;21.70;99.90;;;;;;5038613;28;20198;-78
2023/09/18 08:53:19;;;;;;;4.00;2.15;;;21.80;99.90;;;;;;5066994;28;20198;-78
2023/09/18 08:55:47;;;;;;;4.47;2.90;;;21.70;99.90;;;;;;5051340;28;20221;-78
2023/09/18 08:58:15;;;;;;;4.05;2.13;;;21.90;99.90;;;;;;5053196;28;20691;-78
2023/09/18 09:00:43;;;;;;;3.60;2.33;;;21.90;99.90;;;;;;5052606;28;20206;-78
2023/09/18 09:03:10;;;;;;;4.75;1.92;;;21.90;99.90;;;;;;5052724;28;20206;-78
2023/09/18 09:05:38;;;;;;;4.70;2.17;;;22.00;99.90;;;;;;5047378;28;20688;-78
2023/09/18 09:08:07;;;;;;;3.17;1.70;;;21.80;99.90;;;;;;5052456;28;20195;-78
2023/09/18 09:10:34;;;;;;;2.92;1.80;;;21.90;99.90;;;;;;5050469;28;20578;-78
2023/09/18 09:13:02;;;;;;;4.15;2.13;;;21.90;99.90;;;;;;5068282;28;20206;-78
2023/09/18 09:15:34;;;;;;;2.50;1.80;;;21.80;99.90;;;;;;5048194;28;20233;-78
2023/09/18 09:18:08;;;;;;;3.03;1.63;;;21.90;99.90;;;;;;5053367;28;20214;-78
2023/09/18 09:20:36;;;;;;;3.97;1.60;;;21.90;99.90;;;;;;5047040;28;20202;-78
2023/09/18 09:23:05;;;;;;;3.78;1.75;;;21.90;99.90;;;;;;5050140;28;20206;-78
2023/09/18 09:25:35;;;;;;;3.00;1.65;;;21.90;99.90;;;;;;5052947;28;20214;-78
2023/09/18 09:28:04;;;;;;;3.00;1.48;;;22.00;99.90;;;;;;5054627;28;20195;-78
2023/09/18 09:30:33;;;;;;;3.05;1.50;;;21.80;99.90;;;;;;5051749;28;20218;-78
2023/09/18 09:33:02;;;;;;;2.75;1.75;;;21.90;99.90;;;;;;5056856;28;20194;-78
2023/09/18 09:35:33;;;;;;;3.55;1.55;;;21.80;99.90;;;;;;5069648;28;20680;-78
2023/09/18 09:38:02;;;;;;;2.08;1.55;;;21.90;99.90;;;;;;5054120;28;20219;-78
2023/09/18 09:40:31;;;;;;;3.10;1.40;;;21.80;99.90;;;;;;5054085;28;20205;-78
2023/09/18 09:43:04;;;;;;;3.67;1.77;;;21.90;99.90;;;;;;5045303;28;20202;-78
2023/09/18 09:45:35;;;;;;;2.33;1.20;;;21.80;99.90;;;;;;5050469;28;20218;-78
2023/09/18 09:48:05;;;;;;;3.50;1.77;;;21.90;99.90;;;;;;5065910;28;20206;-78
2023/09/18 09:50:33;;;;;;;2.78;1.45;;;21.90;99.90;;;;;;5044757;28;20221;-78
2023/09/18 09:53:02;;;;;;;2.70;1.52;;;22.00;99.90;;;;;;5051251;28;20679;-78
2023/09/18 09:55:33;;;;;;;3.72;1.55;;;22.00;99.90;;;;;;5053938;28;20234;-78
2023/09/18 09:58:06;;;;;;;3.15;1.60;;;22.10;99.90;;;;;;5057849;28;20218;-78
2023/09/18 10:00:42;;;;;;;4.53;1.75;;;22.10;99.90;;;;;;5049745;28;20206;-78
2023/09/18 10:03:11;;;;;;;2.25;1.50;;;22.20;99.90;;;;;;5052404;28;20203;-78
2023/09/18 10:05:40;;;;;;;4.10;1.88;;;22.20;99.90;;;;;;5058096;28;20604;-78
2023/09/18 10:08:11;;;;;;;3.67;1.48;;;22.20;99.90;;;;;;5054513;28;20202;-78
2023/09/18 10:10:43;;;;;;;3.22;1.80;;;22.20;99.90;;;;;;5052677;28;20206;-77
2023/09/18 10:13:18;;;;;;;5.47;2.15;;;22.20;99.90;;;;;;5049848;28;20198;-77
2023/09/18 10:15:48;;;;;;;3.28;2.25;;;22.20;99.90;;;;;;5048071;28;20225;-78
2023/09/18 10:18:22;;;;;;;5.43;1.80;;;22.30;99.90;;;;;;5055470;28;20214;-77
2023/09/18 10:20:57;;;;;;;2.15;1.85;;;22.30;99.90;;;;;;5050311;28;20198;-77
2023/09/18 10:23:39;;;;;;;2.03;1.38;;;22.30;99.90;;;;;;5054358;28;20197;-77
2023/09/18 10:26:10;;;;;;;1.45;1.30;;;22.30;99.90;;;;;;5047573;28;20225;-77
2023/09/18 10:28:40;;;;;;;3.85;2.05;;;22.40;99.90;;;;;;5054120;28;20203;-78
2023/09/18 10:31:11;;;;;;;3.53;1.80;;;22.40;99.90;;;;;;5050916;28;20198;-78
2023/09/18 10:33:39;;;;;;;4.03;1.90;;;22.30;99.90;;;;;;5069506;28;20202;-78
2023/09/18 10:36:09;;;;;;;3.45;1.83;;;22.50;99.90;;;;;;5059866;28;20230;-78
2023/09/18 10:38:38;;;;;;;2.13;1.60;;;22.70;99.90;;;;;;5060773;28;20214;-78
2023/09/18 10:41:08;;;;;;;1.65;1.40;;;22.80;99.90;;;;;;5039986;28;20207;-77
2023/09/18 10:43:37;;;;;;;2.35;1.48;;;22.80;99.90;;;;;;5054779;28;20660;-78
2023/09/18 10:46:05;;;;;;;3.10;1.63;;;22.80;99.90;;;;;;5052968;28;20225;-78
2023/09/18 10:48:33;;;;;;;2.92;1.70;;;22.90;99.90;;;;;;5049466;28;20210;-77
2023/09/18 10:51:05;;;;;;;3.50;1.50;;;23.10;99.90;;;;;;5049438;28;20210;-77
2023/09/18 10:53:33;;;;;;;3.38;1.48;;;23.30;99.90;;;;;;5055089;28;20206;-77
2023/09/18 10:56:04;;;;;;;2.92;1.35;;;23.50;99.90;;;;;;5006388;28;20232;-78
2023/09/18 10:58:35;;;;;;;4.95;1.88;;;23.30;99.90;;;;;;4996251;28;20212;-78
2023/09/18 11:01:05;;;;;;;3.88;1.55;;;23.40;99.90;;;;;;5000370;28;20192;-78
2023/09/18 11:03:35;;;;;;;3.35;1.30;;;23.50;99.90;;;;;;4994326;28;20229;-78
2023/09/18 11:06:07;;;;;;;4.47;1.92;;;23.50;99.90;;;;;;5006801;28;20239;-78
2023/09/18 11:08:37;;;;;;;2.22;1.50;;;23.70;99.90;;;;;;4992135;28;20196;-78
2023/09/18 11:11:09;;;;;;;2.20;1.45;;;23.60;99.90;;;;;;4998974;28;20205;-79
2023/09/18 11:13:40;;;;;;;1.63;1.50;;;23.70;99.90;;;;;;4986704;28;20201;-79
2023/09/18 11:16:33;;;;;;;3.95;1.60;;;23.80;99.90;;;;;;4983940;28;20291;-79
2023/09/18 11:19:10;;;;;;;3.15;1.65;;;24.00;99.90;;;;;;4991851;28;20238;-78
2023/09/18 11:21:39;;;;;;;4.75;1.58;;;24.20;99.90;;;;;;4996766;28;20200;-79
2023/09/18 11:24:10;;;;;;;2.30;1.50;;;24.00;99.90;;;;;;5008183;28;20220;-79
2023/09/18 11:26:41;;;;;;;2.88;1.98;;;24.30;99.90;;;;;;5006642;28;20209;-79
2023/09/18 11:29:10;;;;;;;3.80;1.83;;;24.40;99.90;;;;;;5010814;28;20540;-79
2023/09/18 11:31:44;;;;;;;3.33;1.63;;;24.30;98.80;;;;;;5005045;28;20208;-79
2023/09/18 11:34:16;;;;;;;5.70;1.70;;;24.20;48.00;;;;;;5008209;28;20227;-79
2023/09/18 11:36:44;;;;;;;2.95;1.63;;;24.30;52.10;;;;;;4996615;28;20203;-79
2023/09/18 11:39:13;;;;;;;3.95;1.80;;;24.30;88.70;;;;;;4999975;28;20235;-79
2023/09/18 11:41:40;;;;;;;1.63;1.42;;;24.60;93.80;;;;;;4992436;28;20201;-79
2023/09/18 11:44:40;;;;;;;5.38;1.90;;;24.60;99.90;;;;;;5002523;28;20231;-79
2023/09/18 11:47:16;;;;;;;3.80;1.73;;;24.40;99.90;;;;;;4983929;28;20207;-78
2023/09/18 11:49:50;;;;;;;2.47;1.60;;;24.00;99.90;;;;;;4982290;28;20563;-78
2023/09/18 11:52:18;;;;;;;2.42;1.70;;;24.10;99.90;;;;;;4998745;28;20212;-78
2023/09/18 11:54:46;;;;;;;2.20;1.75;;;24.10;99.90;;;;;;5003002;28;20215;-78
2023/09/18 11:57:14;;;;;;;2.72;1.75;;;24.10;99.90;;;;;;4987119;28;20215;-79
2023/09/18 11:59:43;;;;;;;4.00;1.70;;;24.30;99.90;;;;;;4999440;28;20212;-79
2023/09/18 12:02:20;;;;;;;3.13;1.65;;;24.30;99.90;;;;;;5003311;28;20205;-78
2023/09/18 12:04:48;;;;;;;3.22;1.75;;;24.10;99.90;;;;;;5003931;28;20697;-78
2023/09/18 12:07:15;;;;;;;2.22;1.65;;;24.10;99.90;;;;;;5002918;28;20208;-78
2023/09/18 12:09:43;;;;;;;3.22;1.50;;;24.10;99.90;;;;;;5003245;28;20204;-78
2023/09/18 12:12:14;;;;;;;3.33;1.80;;;24.00;99.90;;;;;;4985617;28;20201;-78
2023/09/18 12:14:44;;;;;;;3.50;1.77;;;23.90;99.90;;;;;;4985566;28;20224;-79
2023/09/18 12:17:17;;;;;;;2.22;1.80;;;23.90;99.90;;;;;;4988105;28;20209;-79
2023/09/18 12:19:53;;;;;;;4.05;1.73;;;23.90;99.90;;;;;;4985067;28;20205;-78
2023/09/18 12:22:26;;;;;;;2.40;1.90;;;23.80;99.90;;;;;;4986623;28;20207;-78
2023/09/18 12:25:12;;;;;;;3.05;1.88;;;23.80;99.90;;;;;;4985996;28;20236;-82
2023/09/18 12:27:45;;;;;;;1.92;1.50;;;23.80;99.90;;;;;;5001001;28;20200;-78
2023/09/18 12:30:15;;;;;;;3.20;1.67;;;23.70;99.90;;;;;;4989962;28;20193;-78
2023/09/18 12:32:45;;;;;;;2.80;1.55;;;23.60;99.90;;;;;;4984765;28;20203;-78
2023/09/18 12:35:15;;;;;;;3.92;1.75;;;23.60;99.90;;;;;;4981974;28;20239;-81
2023/09/18 12:37:43;;;;;;;2.80;1.67;;;24.00;99.90;;;;;;5005982;28;20196;-78
2023/09/18 12:40:22;;;;;;;3.50;1.90;;;24.50;99.90;;;;;;4991958;28;20220;-78
2023/09/18 12:42:51;;;;;;;5.10;1.73;;;24.80;99.90;;;;;;4987573;28;20196;-78
2023/09/18 12:45:19;;;;;;;3.50;2.00;;;25.00;99.90;;;;;;4994821;28;20223;-78
2023/09/18 12:47:48;;;;;;;3.15;1.90;;;25.20;99.90;;;;;;4989466;28;20212;-78
2023/09/18 12:50:16;;;;;;;3.00;1.77;;;25.10;99.90;;;;;;4990398;28;20689;-78
2023/09/18 12:52:44;;;;;;;2.47;1.90;;;25.20;99.90;;;;;;4992641;28;20204;-79
2023/09/18 12:55:23;;;;;;;2.30;1.90;;;25.40;99.90;;;;;;4990709;28;20224;-78